Macondo — 3EYB9 — position and weather

sailwx.info

Track history (hours):
 
Tides and Currents Weather Stations Pressure Air Temp Water Temp Dewpoint Dewpoint Depression Visibility Wind Speed Wind Dir Waves Ship Positions

Macondo

Last reported at 2016-Jan-10 01:07 UTC. Time now 2016-Feb-11 19:14 UTC.
Position N 10°49' W 062°02'.
Warning: this ship's position is 32 days out of date.

Length 120 m; draft 6.8 m.

Type: Cargo ship. MMSI: 371293000.

Date/timePositionNaut miles runAvg speedWind from/ knotsBaromVisibWave heightAir tempDewpointWater temp
2016-Jan-10 01:07N 10°49' W 062°02'610.6
2016-Jan-10 00:33N 10°48' W 061°56'10 9.9
2016-Jan-09 23:33N 10°43' W 061°48'1211.9
2016-Jan-09 22:33N 10°33' W 061°42'1111.4
2016-Jan-09 21:33N 10°23' W 061°35'1 1.0
2016-Jan-09 20:12N 10°23' W 061°33'0 0.0
2016-Jan-09 19:33N 10°23' W 061°33'0 0.0
2016-Jan-09 18:29N 10°23' W 061°33'0 0.0
2016-Jan-09 17:29N 10°23' W 061°33'0 0.0
2016-Jan-09 16:16N 10°23' W 061°33'0 0.0
2016-Jan-09 15:31N 10°23' W 061°33'0 0.0
2016-Jan-09 14:28N 10°23' W 061°33'0 0.0
2016-Jan-09 13:33N 10°23' W 061°33'0 0.0
2016-Jan-09 12:33N 10°23' W 061°33'0 0.0
2016-Jan-09 11:32N 10°23' W 061°33'0 0.0
2016-Jan-09 10:32N 10°23' W 061°33'0 0.0
2016-Jan-09 09:22N 10°22' W 061°33'0 0.0
2016-Jan-09 08:31N 10°23' W 061°33'0 0.0
2016-Jan-09 07:31N 10°22' W 061°33'0 0.0
2016-Jan-09 05:30N 10°22' W 061°33'0 0.0
2016-Jan-09 04:32N 10°23' W 061°33'4 4.2
2016-Jan-09 03:33N 10°24' W 061°30'0 0.0
2016-Jan-09 02:33N 10°24' W 061°30'0 0.0
2016-Jan-09 01:33N 10°24' W 061°30'0 0.0
2016-Jan-09 00:29N 10°24' W 061°30'0 0.0
2016-Jan-08 23:29N 10°24' W 061°30'0 0.0
2016-Jan-08 22:07N 10°24' W 061°30'0 0.0
2016-Jan-08 21:31N 10°24' W 061°30'0 0.0
2016-Jan-08 18:08N 10°24' W 061°30'0 0.0
2016-Jan-08 17:32N 10°24' W 061°30'0 0.0
2016-Jan-08 16:32N 10°24' W 061°30'0 0.0
2016-Jan-08 15:28N 10°24' W 061°30'0 0.0
2016-Jan-08 14:34N 10°24' W 061°30'0 0.0
2016-Jan-08 13:33N 10°24' W 061°30'0 0.0
2016-Jan-08 12:33N 10°24' W 061°30'0 0.0
2016-Jan-08 11:33N 10°24' W 061°30'0 0.0
2016-Jan-08 10:33N 10°24' W 061°30'0 0.0
2016-Jan-08 09:33N 10°24' W 061°30'0 0.0
2016-Jan-08 08:33N 10°24' W 061°30'0 0.0
2016-Jan-08 07:34N 10°24' W 061°30'0 0.0
2016-Jan-08 06:33N 10°24' W 061°30'0 0.0
2016-Jan-08 05:33N 10°24' W 061°30'0 0.0
2016-Jan-08 04:33N 10°24' W 061°30'0 0.0
2016-Jan-08 03:33N 10°24' W 061°30'0 0.0
2016-Jan-08 02:33N 10°24' W 061°30'0 0.0
2016-Jan-08 01:34N 10°24' W 061°30'0 0.0
2016-Jan-08 00:33N 10°24' W 061°30'0 0.0
2016-Jan-07 23:33N 10°24' W 061°30'0 0.0
2016-Jan-07 22:33N 10°24' W 061°30'0 0.0
2016-Jan-07 21:33N 10°24' W 061°30'5 4.3
2016-Jan-07 20:25N 10°22' W 061°34'1 1.3
2016-Jan-07 19:29N 10°23' W 061°33'2 1.9
2016-Jan-07 18:23N 10°24' W 061°34'810.3
2016-Jan-07 17:33N 10°31' W 061°40'1312.0
2016-Jan-07 16:27N 10°41' W 061°49'9 9.2
2016-Jan-07 15:31N 10°47' W 061°43'  
Track history (hours):
 
Tides and Currents Weather Stations Pressure Air Temp Water Temp Dewpoint Dewpoint Depression Visibility Wind Speed Wind Dir Waves Ship Positions

Macondo

Last reported at 2016-Jan-10 01:07 UTC. Time now 2016-Feb-11 19:14 UTC.
Position N 10°49' W 062°02'.
Warning: this ship's position is 32 days out of date.

Length 120 m; draft 6.8 m.

Type: Cargo ship. MMSI: 371293000.

Date/timePositionNaut miles runAvg speedWind from/ knotsBaromVisibWave heightAir tempDewpointWater temp
2016-Jan-10 01:07N 10°49' W 062°02'610.6
2016-Jan-10 00:33N 10°48' W 061°56'10 9.9
2016-Jan-09 23:33N 10°43' W 061°48'1211.9
2016-Jan-09 22:33N 10°33' W 061°42'1111.4
2016-Jan-09 21:33N 10°23' W 061°35'1 1.0
2016-Jan-09 20:12N 10°23' W 061°33'0 0.0
2016-Jan-09 19:33N 10°23' W 061°33'0 0.0
2016-Jan-09 18:29N 10°23' W 061°33'0 0.0
2016-Jan-09 17:29N 10°23' W 061°33'0 0.0
2016-Jan-09 16:16N 10°23' W 061°33'0 0.0
2016-Jan-09 15:31N 10°23' W 061°33'0 0.0
2016-Jan-09 14:28N 10°23' W 061°33'0 0.0
2016-Jan-09 13:33N 10°23' W 061°33'0 0.0
2016-Jan-09 12:33N 10°23' W 061°33'0 0.0
2016-Jan-09 11:32N 10°23' W 061°33'0 0.0
2016-Jan-09 10:32N 10°23' W 061°33'0 0.0
2016-Jan-09 09:22N 10°22' W 061°33'0 0.0
2016-Jan-09 08:31N 10°23' W 061°33'0 0.0
2016-Jan-09 07:31N 10°22' W 061°33'0 0.0
2016-Jan-09 05:30N 10°22' W 061°33'0 0.0
2016-Jan-09 04:32N 10°23' W 061°33'4 4.2
2016-Jan-09 03:33N 10°24' W 061°30'0 0.0
2016-Jan-09 02:33N 10°24' W 061°30'0 0.0
2016-Jan-09 01:33N 10°24' W 061°30'0 0.0
2016-Jan-09 00:29N 10°24' W 061°30'0 0.0
2016-Jan-08 23:29N 10°24' W 061°30'0 0.0
2016-Jan-08 22:07N 10°24' W 061°30'0 0.0
2016-Jan-08 21:31N 10°24' W 061°30'0 0.0
2016-Jan-08 18:08N 10°24' W 061°30'0 0.0
2016-Jan-08 17:32N 10°24' W 061°30'0 0.0
2016-Jan-08 16:32N 10°24' W 061°30'0 0.0
2016-Jan-08 15:28N 10°24' W 061°30'0 0.0
2016-Jan-08 14:34N 10°24' W 061°30'0 0.0
2016-Jan-08 13:33N 10°24' W 061°30'0 0.0
2016-Jan-08 12:33N 10°24' W 061°30'0 0.0
2016-Jan-08 11:33N 10°24' W 061°30'0 0.0
2016-Jan-08 10:33N 10°24' W 061°30'0 0.0
2016-Jan-08 09:33N 10°24' W 061°30'0 0.0
2016-Jan-08 08:33N 10°24' W 061°30'0 0.0
2016-Jan-08 07:34N 10°24' W 061°30'0 0.0
2016-Jan-08 06:33N 10°24' W 061°30'0 0.0
2016-Jan-08 05:33N 10°24' W 061°30'0 0.0
2016-Jan-08 04:33N 10°24' W 061°30'0 0.0
2016-Jan-08 03:33N 10°24' W 061°30'0 0.0
2016-Jan-08 02:33N 10°24' W 061°30'0 0.0
2016-Jan-08 01:34N 10°24' W 061°30'0 0.0
2016-Jan-08 00:33N 10°24' W 061°30'0 0.0
2016-Jan-07 23:33N 10°24' W 061°30'0 0.0
2016-Jan-07 22:33N 10°24' W 061°30'0 0.0
2016-Jan-07 21:33N 10°24' W 061°30'5 4.3
2016-Jan-07 20:25N 10°22' W 061°34'1 1.3
2016-Jan-07 19:29N 10°23' W 061°33'2 1.9
2016-Jan-07 18:23N 10°24' W 061°34'810.3
2016-Jan-07 17:33N 10°31' W 061°40'1312.0
2016-Jan-07 16:27N 10°41' W 061°49'9 9.2
2016-Jan-07 15:31N 10°47' W 061°43'  

Dump ship's entire track history